LiveATC.Net - Listen to live air traffic control over the Internet!


ICAO: KLOU  IATA: LOU   Airport: Bowman Field Airport
City: Louisville   State/Province: Kentucky
Country: United States   Continent: North America
KLOU METAR Weather: KLOU 182353Z 00000KT 10SM OVC020 07/02 A3016 RMK AO2 SLP214 T00670017 10072 20061 55003
KLOU Flight Activity (FlightAware)
KLOU Airport Info   (AirNav) (iFlightPlanner)
KLOU VFR Sectional Chart   (iFlightPlanner) 
KLOU IFR Low Chart   (iFlightPlanner) 
KLOU Del/Gnd/Twr
Feed Status: DOWN
Last heard on: 2017-01-11 20:37:04 (7 days 3 hours 50 minutes ago)
KLOU Del/Gnd/Twr Audio Archives
FacilityFrequency
Bowman Clearance Delivery118.900
Bowman Ground121.800
Bowman Tower119.500

Feed sponsored by:

NOTICE

Unauthorized use prohibited. See LiveATC.net Terms of Service


Find LiveATC Audio Streams


Airport/ARTCC Code

Frequency Search
(e.g., 124.400, 128.75)
Site-wide search
 


Browse LiveATC Feeds
LiveATC Coverage Map
Top 50 LiveATC Feeds
Bad Weather Areas

LiveATC FAQ
Offer a LiveATC Feed
Contact LiveATC.net
Press Inquiries

LiveATC on iPhone
LiveATC on Android

Windows Phone
Windows 8/10

LiveATC Mobile
(Mobile browser)

ATC Audio Archives
Interesting Recordings

LiveATC Forums


Home Page
About LiveATC.net
Make a Donation
LiveATC Store

Terms of Use
Privacy Policy

Canadian Air Freqs

AIRMETs/SIGMETs

FAA Airport Status
Nat'l Airspace Status
Arrival Demand Charts


Server Software By:
Icecast.org
Liquidsoap